createdAt,value
2019-01-14T00:00:30.218Z,7.70
2019-01-14T00:04:34.767Z,7.60
2019-01-14T00:08:39.338Z,7.60
2019-01-14T00:12:43.834Z,7.50
2019-01-14T00:16:48.399Z,7.50
2019-01-14T00:20:53.042Z,7.50
2019-01-14T00:24:57.585Z,7.40
2019-01-14T00:29:02.127Z,7.40
2019-01-14T00:33:06.803Z,7.30
2019-01-14T00:37:11.332Z,7.20
2019-01-14T00:41:15.903Z,7.20
2019-01-14T00:45:20.455Z,7.30
2019-01-14T00:49:25.007Z,7.20
2019-01-14T00:53:29.606Z,7.20
2019-01-14T00:57:34.118Z,7.10
2019-01-14T01:01:38.671Z,7.00
2019-01-14T01:05:43.234Z,7.00
2019-01-14T01:09:47.783Z,7.10
2019-01-14T01:13:52.357Z,7.10
2019-01-14T01:17:56.856Z,7.00
2019-01-14T01:22:01.494Z,7.00
2019-01-14T01:26:06.042Z,7.00
2019-01-14T01:30:13.249Z,6.80
2019-01-14T01:34:17.834Z,6.90
2019-01-14T01:38:22.362Z,6.80
2019-01-14T01:42:26.923Z,6.80
2019-01-14T01:46:31.455Z,6.70
2019-01-14T01:50:35.991Z,6.60
2019-01-14T01:54:40.553Z,6.50
2019-01-14T01:58:45.067Z,6.50
2019-01-14T02:02:49.934Z,6.60
2019-01-14T02:06:54.466Z,6.50
2019-01-14T02:10:59.004Z,6.50
2019-01-14T02:15:03.545Z,6.40
2019-01-14T02:19:08.067Z,6.60
2019-01-14T02:23:12.707Z,6.40
2019-01-14T02:27:17.243Z,6.50
2019-01-14T02:31:21.794Z,6.40
2019-01-14T02:35:26.362Z,6.30
2019-01-14T02:39:30.863Z,6.20
2019-01-14T02:43:35.431Z,6.10
2019-01-14T02:47:39.939Z,6.10
2019-01-14T02:51:44.524Z,6.00
2019-01-14T02:59:14.458Z,6.10
2019-01-14T03:03:19.003Z,6.00
2019-01-14T03:07:23.543Z,5.90
2019-01-14T03:11:28.112Z,6.10
2019-01-14T03:15:32.605Z,6.00
2019-01-14T03:19:37.159Z,6.20
2019-01-14T03:23:41.708Z,6.10
2019-01-14T03:27:46.240Z,6.00
2019-01-14T03:31:50.777Z,6.10
2019-01-14T03:35:55.322Z,6.10
2019-01-14T03:39:59.855Z,6.30
2019-01-14T03:44:05.319Z,6.20
2019-01-14T03:48:09.843Z,6.20
2019-01-14T03:52:14.444Z,6.00
2019-01-14T03:56:19.046Z,6.00
2019-01-14T04:00:23.588Z,6.20
2019-01-14T04:04:28.127Z,6.20
2019-01-14T04:08:32.659Z,6.30
2019-01-14T04:12:37.198Z,6.20
2019-01-14T04:16:41.691Z,6.20
2019-01-14T04:20:46.222Z,6.10
2019-01-14T04:24:50.779Z,6.20
2019-01-14T04:28:55.323Z,6.10
2019-01-14T04:32:59.935Z,6.10
2019-01-14T04:37:04.771Z,6.10
2019-01-14T04:41:09.412Z,6.00
2019-01-14T04:45:14.087Z,6.00
2019-01-14T04:49:18.623Z,5.90
2019-01-14T04:53:23.159Z,5.90
2019-01-14T04:57:27.704Z,5.80
2019-01-14T05:01:32.211Z,5.80
2019-01-14T05:05:36.753Z,5.80
2019-01-14T05:09:41.292Z,5.80
2019-01-14T05:13:45.899Z,5.70
2019-01-14T05:17:50.438Z,5.60
2019-01-14T05:21:55.061Z,5.70
2019-01-14T05:25:59.584Z,5.60
2019-01-14T05:30:04.662Z,5.50
2019-01-14T05:34:09.235Z,5.60
2019-01-14T05:38:13.789Z,5.50
2019-01-14T05:42:18.397Z,5.50
2019-01-14T05:46:22.932Z,5.40
2019-01-14T05:50:27.489Z,5.40
2019-01-14T05:54:32.023Z,5.50
2019-01-14T05:58:36.580Z,5.40
2019-01-14T06:02:41.103Z,5.40
2019-01-14T06:06:45.641Z,5.30
2019-01-14T06:10:50.192Z,5.40
2019-01-14T06:14:54.759Z,5.20
2019-01-14T06:18:59.296Z,5.40
2019-01-14T06:23:03.791Z,5.50
2019-01-14T06:27:08.386Z,5.50
2019-01-14T06:31:12.924Z,5.40
2019-01-14T06:35:17.699Z,5.40
2019-01-14T06:39:22.311Z,5.50
2019-01-14T06:43:26.820Z,5.40
2019-01-14T06:47:31.352Z,5.40
2019-01-14T06:51:36.031Z,5.40
2019-01-14T06:55:40.580Z,5.40
2019-01-14T06:59:45.147Z,5.30
2019-01-14T07:03:49.815Z,5.30
2019-01-14T07:07:59.541Z,5.20
2019-01-14T07:12:00.749Z,5.10
2019-01-14T07:16:05.295Z,5.10
2019-01-14T07:20:10.280Z,5.20
2019-01-14T07:24:14.798Z,5.20
2019-01-14T07:28:19.351Z,5.10
2019-01-14T07:32:23.900Z,5.10
2019-01-14T07:36:29.668Z,5.10
2019-01-14T07:40:34.215Z,5.20
2019-01-14T07:44:38.747Z,5.10
2019-01-14T07:48:43.281Z,5.10
2019-01-14T07:52:48.107Z,5.20
2019-01-14T07:56:52.802Z,5.40
2019-01-14T08:00:57.358Z,5.40
2019-01-14T08:05:01.844Z,5.40
2019-01-14T08:09:08.935Z,5.20
2019-01-14T08:13:13.579Z,5.20
2019-01-14T08:17:18.277Z,5.10
2019-01-14T08:21:22.762Z,5.00
2019-01-14T08:25:27.327Z,5.00
2019-01-14T08:29:31.884Z,4.90
2019-01-14T08:33:36.420Z,4.90
2019-01-14T08:37:41.029Z,4.90
2019-01-14T08:41:52.254Z,4.90
2019-01-14T08:45:57.818Z,4.80
2019-01-14T08:50:07.212Z,4.80
2019-01-14T08:54:11.753Z,4.80
2019-01-14T08:58:16.608Z,4.80
2019-01-14T09:02:21.265Z,4.80
2019-01-14T09:06:25.859Z,4.90
2019-01-14T09:10:30.418Z,4.90
2019-01-14T09:14:34.902Z,4.80
2019-01-14T09:18:39.444Z,4.70
2019-01-14T09:22:43.978Z,4.80
2019-01-14T09:26:48.560Z,4.70
2019-01-14T09:30:53.072Z,4.80
2019-01-14T09:34:57.676Z,4.80
2019-01-14T09:39:02.211Z,4.70
2019-01-14T09:43:06.863Z,4.70
2019-01-14T09:47:11.418Z,4.90
2019-01-14T09:51:15.973Z,5.00
2019-01-14T09:55:20.811Z,5.00
2019-01-14T09:59:25.343Z,5.10
2019-01-14T10:03:29.936Z,5.20
2019-01-14T10:07:34.492Z,5.10
2019-01-14T10:11:38.995Z,5.20
2019-01-14T10:15:43.531Z,5.10
2019-01-14T10:19:48.060Z,5.10
2019-01-14T10:23:52.687Z,5.10
2019-01-14T10:27:57.221Z,5.20
2019-01-14T10:32:01.708Z,5.30
2019-01-14T10:36:06.719Z,5.30
2019-01-14T10:40:13.548Z,5.20
2019-01-14T10:44:18.094Z,5.20
2019-01-14T10:48:22.634Z,5.10
2019-01-14T10:52:27.122Z,5.00
2019-01-14T10:56:31.687Z,5.10
2019-01-14T11:00:36.234Z,5.10
2019-01-14T11:04:40.775Z,5.00
2019-01-14T11:08:45.327Z,5.00
2019-01-14T11:12:50.141Z,5.00
2019-01-14T11:16:54.699Z,5.00
2019-01-14T11:20:59.240Z,5.00
2019-01-14T11:25:04.079Z,5.00
2019-01-14T11:29:08.616Z,4.90
2019-01-14T11:33:13.130Z,4.80
2019-01-14T11:37:17.716Z,4.70
2019-01-14T11:41:23.576Z,4.70
2019-01-14T11:45:28.160Z,4.70
2019-01-14T11:49:32.715Z,4.60
2019-01-14T11:53:37.212Z,4.60
2019-01-14T11:57:41.746Z,4.80
2019-01-14T12:01:46.392Z,4.70
2019-01-14T12:05:50.929Z,4.80
2019-01-14T12:09:55.466Z,4.70
2019-01-14T12:14:00.146Z,4.80
2019-01-14T12:18:05.373Z,4.80
2019-01-14T12:22:09.952Z,4.80
2019-01-14T12:26:17.295Z,4.90
2019-01-14T12:30:30.679Z,4.90
2019-01-14T12:34:35.262Z,4.80
2019-01-14T12:38:39.804Z,4.90
2019-01-14T12:42:44.334Z,5.00
2019-01-14T12:46:48.909Z,4.80
2019-01-14T12:50:53.448Z,4.90
2019-01-14T12:54:57.948Z,5.10
2019-01-14T12:59:02.500Z,5.10
2019-01-14T13:03:07.075Z,5.20
2019-01-14T13:07:11.564Z,5.30
2019-01-14T13:11:16.111Z,5.30
2019-01-14T13:15:22.903Z,5.30
2019-01-14T13:19:27.444Z,5.40
2019-01-14T13:23:32.391Z,5.50
2019-01-14T13:27:36.986Z,5.50
2019-01-14T13:31:41.532Z,5.70
2019-01-14T13:35:46.077Z,5.70
2019-01-14T13:39:52.621Z,5.70
2019-01-14T13:43:56.758Z,5.70
2019-01-14T13:48:20.436Z,5.70
2019-01-14T13:52:24.960Z,5.90
2019-01-14T13:56:29.453Z,6.10
2019-01-14T14:00:33.962Z,5.90
2019-01-14T14:04:38.506Z,5.90
2019-01-14T14:08:43.038Z,5.60
2019-01-14T14:12:47.552Z,5.60
2019-01-14T14:16:52.081Z,5.60
2019-01-14T14:20:56.623Z,5.30
2019-01-14T14:25:01.176Z,5.40
2019-01-14T14:29:05.735Z,5.30
2019-01-14T14:33:10.282Z,5.10
2019-01-14T14:37:14.863Z,4.90
2019-01-14T14:41:19.418Z,5.10
2019-01-14T14:45:24.071Z,4.90
2019-01-14T14:49:28.611Z,4.80
2019-01-14T14:53:35.358Z,4.90
2019-01-14T14:57:39.843Z,4.90
2019-01-14T15:01:44.469Z,4.60
2019-01-14T15:05:48.998Z,4.70
2019-01-14T15:09:56.051Z,4.40
2019-01-14T15:13:59.967Z,4.40
2019-01-14T15:18:05.330Z,4.40
2019-01-14T15:22:28.880Z,4.20
2019-01-14T15:26:33.456Z,4.20
2019-01-14T15:30:38.046Z,4.20
2019-01-14T15:34:42.607Z,4.00
2019-01-14T15:38:47.142Z,4.10
2019-01-14T15:42:51.646Z,4.20
2019-01-14T15:46:56.207Z,4.30
2019-01-14T15:51:00.759Z,4.30
2019-01-14T15:55:06.539Z,4.20
2019-01-14T15:59:11.075Z,4.20
2019-01-14T16:03:15.620Z,4.10
2019-01-14T16:07:20.258Z,4.10
2019-01-14T16:11:24.813Z,4.10
2019-01-14T16:15:29.365Z,4.10
2019-01-14T16:19:33.908Z,4.10
2019-01-14T16:23:38.428Z,4.10
2019-01-14T16:27:43.027Z,3.90
2019-01-14T16:31:47.596Z,3.90
2019-01-14T16:35:52.413Z,4.00
2019-01-14T16:39:56.943Z,4.00
2019-01-14T16:44:01.446Z,4.00
2019-01-14T16:48:06.051Z,3.90
2019-01-14T16:52:10.614Z,3.80
2019-01-14T16:57:47.891Z,3.80
2019-01-14T17:01:52.455Z,3.80
2019-01-14T17:05:57.016Z,3.80
2019-01-14T17:10:01.582Z,3.80
2019-01-14T17:14:06.195Z,3.80
2019-01-14T17:18:10.723Z,3.70
2019-01-14T17:22:15.278Z,3.50
2019-01-14T17:26:19.839Z,3.80
2019-01-14T17:30:24.368Z,3.80
2019-01-14T17:34:28.955Z,3.90
2019-01-14T17:38:33.516Z,3.90
2019-01-14T17:42:38.102Z,3.90
2019-01-14T17:46:42.638Z,4.00
2019-01-14T17:50:47.191Z,4.00
2019-01-14T17:54:51.695Z,3.90
2019-01-14T17:58:56.268Z,3.80
2019-01-14T18:03:00.815Z,3.90
2019-01-14T18:07:05.346Z,3.80
2019-01-14T18:11:09.895Z,3.80
2019-01-14T18:15:14.836Z,3.90
2019-01-14T18:19:19.378Z,3.80
2019-01-14T18:23:23.987Z,3.70
2019-01-14T18:27:28.523Z,3.70
2019-01-14T18:31:33.072Z,3.90
2019-01-14T18:35:37.622Z,3.90
2019-01-14T18:39:42.167Z,3.90
2019-01-14T18:43:46.723Z,3.90
2019-01-14T18:47:51.371Z,3.90
2019-01-14T18:51:55.932Z,3.80
2019-01-14T18:56:00.467Z,3.80
2019-01-14T19:00:07.735Z,3.80
2019-01-14T19:04:12.259Z,3.70
2019-01-14T19:08:16.807Z,3.70
2019-01-14T19:12:21.353Z,3.70
2019-01-14T20:31:28.144Z,4.10
2019-01-14T21:21:55.883Z,4.20
2019-01-14T21:26:00.420Z,4.20
2019-01-14T21:30:05.947Z,4.20
2019-01-14T21:34:10.532Z,4.20
2019-01-14T21:38:15.042Z,4.30
2019-01-14T21:42:19.676Z,4.20
2019-01-14T21:46:24.235Z,4.20
2019-01-14T21:55:04.167Z,4.30
2019-01-14T21:59:08.703Z,4.30
2019-01-14T22:15:27.785Z,4.20
2019-01-14T22:19:32.320Z,4.20
2019-01-14T22:23:36.868Z,4.20
2019-01-14T22:27:41.404Z,4.20
2019-01-14T22:31:45.933Z,4.20
2019-01-14T22:35:50.520Z,4.30
2019-01-14T22:39:55.014Z,4.30
2019-01-14T22:43:59.555Z,4.30
2019-01-14T22:48:04.227Z,4.20
2019-01-14T22:52:08.783Z,4.30
2019-01-14T22:56:13.340Z,4.30
2019-01-14T23:01:01.367Z,4.30
2019-01-14T23:05:06.828Z,4.20
2019-01-14T23:09:11.383Z,4.30
2019-01-14T23:13:15.939Z,4.30
2019-01-14T23:17:20.488Z,4.30
2019-01-14T23:21:25.091Z,4.30
2019-01-14T23:25:29.667Z,4.30
2019-01-14T23:29:34.195Z,4.30
2019-01-14T23:33:38.752Z,4.20
2019-01-14T23:37:43.319Z,4.10
2019-01-14T23:41:47.807Z,4.10
2019-01-14T23:45:52.388Z,4.10
2019-01-14T23:49:56.959Z,4.10
2019-01-14T23:54:01.512Z,4.10
